Main page
METAR-TAF:

METAR-TAF

Airports :

Plovdiv Airport

Plovdiv, Bulgaria

latitude: 42-08N, longitude: 024-45E, elevation: 179 m

Current weather observation

The report was made 17 minutes ago, at 06:30 UTC
Wind 4 kt from the Northwest, varying between West and North/Northwest
Temperature 17°C
Humidity 63%
Pressure 1023 hPa
Visibility 10 km or more

METAR: LBPD 260630Z AUTO 31004KT 270V340 9999 NCD 17/10 Q1023 NOSIG

Time: 09:47 (06:47 UTC)

Forecast

The report was made 1 hour and 47 minutes ago, at 05:00 UTC
Forecast valid from 26 at 06 UTC to 27 at 06 UTC
Wind 4 kt from variable directions
Visibility 10 km or more
no clouds below 1500 m and no cumulonimbus

TAF: LBPD 260500Z 2606/2706 VRB04KT CAVOK

Weather observations and forecasts of more than 4000 airports (METAR and TAF reports).

The available stations are represented by yellow and red dots on the map.

Hover mouse over dot to see the name of the station.

Then click to see weather observations and forecasts.

To change the map : click on the green buttons with a black cross to zoom in, on the green button with a dash to zoom out, or on the green arrows for adjacent maps.


METAR-TAF: